Terminal Aerodrome Forecast
Issued by NWS

Home | Current Version | Previous Version | Text Only | Print | Product List | Glossary On
Versions: 1 2 3 4 5 6 7 8 9 10 11 12 13 14 15 16 17 18 19 20 21 22 23 24
000
FTUS43 KMQT 270701 AAB
TAFSAW
TAF AMD
KSAW 270701Z 2707/2806 20005KT 1SM BR BKN001
     FM271100 23003KT 3/4SM BR BKN002
     FM271400 12003KT P6SM BKN090
     FM272200 13004KT P6SM VCSH OVC100
     FM280000 11005KT P6SM -SHRA OVC030
     FM280200 12005KT 5SM -SHRA BR OVC015=

USA.gov is the U.S. government's official web portal to all federal, state and local government web resources and services.